Time;durP1;ratioP1;P1;durP2;ratioP2;P2;SDS_P1;SDS_P2;PMS_P1;PMS_P2;Temp;Humidity;BMP_temperature;BMP_pressure;BME280_temperature;BME280_humidity;BME280_pressure;Samples;Min_cycle;Max_cycle;Signal;HPM_P1;HPM_P2
2021/07/09 00:00:53;;;;;;;10.85;5.40;;;;;;;;;;5036096;28;20044;-57
2021/07/09 00:03:19;;;;;;;10.27;5.10;;;;;;;;;;5021849;28;20074;-57
2021/07/09 00:05:46;;;;;;;11.15;5.05;;;;;;;;;;5005789;28;20040;-56
2021/07/09 00:08:12;;;;;;;10.80;5.40;;;;;;;;;;4997415;28;20165;-57
2021/07/09 00:10:39;;;;;;;9.40;5.22;;;;;;;;;;5017827;28;20130;-57
2021/07/09 00:13:05;;;;;;;11.45;5.00;;;;;;;;;;5019101;28;20077;-58
2021/07/09 00:15:32;;;;;;;12.00;5.95;;;;;;;;;;5021912;28;20038;-55
2021/07/09 00:18:00;;;;;;;13.50;5.32;;;;;;;;;;4998556;28;20050;-57
2021/07/09 00:20:26;;;;;;;12.27;6.10;;;;;;;;;;4984227;28;20161;-57
2021/07/09 00:22:53;;;;;;;10.50;5.75;;;;;;;;;;5004803;28;20057;-57
2021/07/09 00:25:21;;;;;;;11.00;5.45;;;;;;;;;;5001654;28;20053;-58
2021/07/09 00:27:47;;;;;;;12.32;5.72;;;;;;;;;;5000525;28;20066;-58
2021/07/09 00:30:14;;;;;;;14.50;5.25;;;;;;;;;;5021653;28;20042;-57
2021/07/09 00:32:41;;;;;;;11.60;5.82;;;;;;;;;;5003527;28;20060;-58
2021/07/09 00:35:10;;;;;;;11.98;5.68;;;;;;;;;;5000758;28;20037;-58
2021/07/09 00:37:36;;;;;;;9.77;5.65;;;;;;;;;;5020699;28;20065;-58
2021/07/09 00:40:04;;;;;;;10.77;5.63;;;;;;;;;;5002173;28;20048;-57
2021/07/09 00:42:30;;;;;;;9.73;5.30;;;;;;;;;;5003726;28;20042;-57
2021/07/09 00:44:57;;;;;;;10.85;5.97;;;;;;;;;;5011587;28;20049;-58
2021/07/09 00:47:23;;;;;;;12.50;5.95;;;;;;;;;;5005069;28;20046;-57
2021/07/09 00:49:50;;;;;;;10.88;5.78;;;;;;;;;;5001604;28;20046;-57
2021/07/09 00:52:18;;;;;;;12.68;5.93;;;;;;;;;;5004356;28;20049;-57
2021/07/09 00:54:44;;;;;;;13.98;5.85;;;;;;;;;;5001345;28;20056;-56
2021/07/09 00:57:14;;;;;;;11.50;5.68;;;;;;;;;;5003964;28;20057;-57
2021/07/09 00:59:41;;;;;;;11.48;5.72;;;;;;;;;;5000485;28;20112;-56
2021/07/09 01:02:07;;;;;;;11.95;5.68;;;;;;;;;;5022396;28;20053;-58
2021/07/09 01:04:34;;;;;;;11.93;5.82;;;;;;;;;;5000732;28;20052;-57
2021/07/09 01:07:01;;;;;;;15.10;6.00;;;;;;;;;;5004986;28;20046;-55
2021/07/09 01:09:29;;;;;;;12.40;6.50;;;;;;;;;;4997735;28;20062;-57
2021/07/09 01:11:55;;;;;;;10.52;5.18;;;;;;;;;;5008838;28;20049;-57
2021/07/09 01:14:23;;;;;;;11.32;6.15;;;;;;;;;;5002974;28;20049;-57
2021/07/09 01:16:52;;;;;;;11.85;5.63;;;;;;;;;;5021917;28;20098;-58
2021/07/09 01:19:20;;;;;;;11.48;5.18;;;;;;;;;;5024641;28;20135;-57
2021/07/09 01:21:47;;;;;;;10.60;5.95;;;;;;;;;;5003072;28;20103;-57
2021/07/09 01:24:15;;;;;;;14.98;6.10;;;;;;;;;;5025349;28;20099;-56
2021/07/09 01:26:42;;;;;;;16.77;6.10;;;;;;;;;;5003908;28;20029;-57
2021/07/09 01:29:09;;;;;;;13.15;6.05;;;;;;;;;;5024498;28;20056;-56
2021/07/09 01:31:36;;;;;;;11.13;5.88;;;;;;;;;;5025044;28;20046;-56
2021/07/09 01:34:04;;;;;;;10.10;5.85;;;;;;;;;;5006412;28;20062;-57
2021/07/09 01:36:30;;;;;;;15.25;6.00;;;;;;;;;;4999745;28;20124;-57
2021/07/09 01:38:56;;;;;;;10.43;5.70;;;;;;;;;;4993084;28;20065;-57
2021/07/09 01:41:24;;;;;;;17.90;6.50;;;;;;;;;;5000627;28;20045;-58
2021/07/09 01:43:50;;;;;;;12.15;6.05;;;;;;;;;;5004503;28;20049;-56
2021/07/09 01:46:17;;;;;;;12.15;6.35;;;;;;;;;;4989694;28;20046;-57
2021/07/09 01:48:43;;;;;;;16.23;6.30;;;;;;;;;;5025461;28;20034;-56
2021/07/09 01:51:10;;;;;;;13.35;5.90;;;;;;;;;;5021494;28;20056;-57
2021/07/09 01:53:36;;;;;;;10.85;5.80;;;;;;;;;;5022581;28;20058;-56
2021/07/09 01:56:03;;;;;;;11.30;6.18;;;;;;;;;;5003135;28;20056;-57
2021/07/09 01:58:30;;;;;;;12.27;5.90;;;;;;;;;;5039262;28;20050;-58
2021/07/09 02:00:59;;;;;;;14.70;6.03;;;;;;;;;;5004792;28;20041;-57
2021/07/09 02:03:26;;;;;;;13.10;5.88;;;;;;;;;;5021227;28;20286;-58
2021/07/09 02:05:52;;;;;;;13.82;6.28;;;;;;;;;;5023168;28;20033;-57
2021/07/09 02:08:21;;;;;;;11.05;6.35;;;;;;;;;;5006900;28;20053;-57
2021/07/09 02:10:47;;;;;;;11.63;6.05;;;;;;;;;;5006142;28;20056;-58
2021/07/09 02:13:19;;;;;;;12.50;5.97;;;;;;;;;;5001932;28;20049;-57
2021/07/09 02:15:49;;;;;;;13.13;5.47;;;;;;;;;;5006265;28;20057;-55
2021/07/09 02:18:17;;;;;;;10.52;5.50;;;;;;;;;;5003813;28;20037;-56
2021/07/09 02:20:44;;;;;;;15.23;6.35;;;;;;;;;;5006403;28;20041;-57
2021/07/09 02:23:12;;;;;;;11.80;5.57;;;;;;;;;;4998722;28;20089;-57
2021/07/09 02:25:39;;;;;;;;;;;;;;;;;;4985745;28;20092;-56
2021/07/09 02:28:06;;;;;;;9.90;5.13;;;;;;;;;;5000754;28;19929;-54
2021/07/09 02:30:33;;;;;;;12.05;5.88;;;;;;;;;;5003730;28;20041;-57
2021/07/09 02:33:01;;;;;;;12.77;5.70;;;;;;;;;;5002660;28;20041;-56
2021/07/09 02:35:28;;;;;;;10.77;5.57;;;;;;;;;;5004229;28;20130;-56
2021/07/09 02:37:54;;;;;;;12.45;5.93;;;;;;;;;;5005270;28;20056;-58
2021/07/09 02:40:22;;;;;;;10.48;5.60;;;;;;;;;;5022769;28;20037;-57
2021/07/09 02:42:49;;;;;;;10.15;5.05;;;;;;;;;;5002817;28;20042;-58
2021/07/09 02:45:17;;;;;;;12.77;5.55;;;;;;;;;;5006028;28;20200;-58
2021/07/09 02:47:43;;;;;;;10.82;5.90;;;;;;;;;;5004796;28;20052;-56
2021/07/09 02:50:16;;;;;;;12.27;5.47;;;;;;;;;;5019966;28;20119;-56
2021/07/09 02:52:42;;;;;;;11.10;5.68;;;;;;;;;;5025396;28;20045;-55
2021/07/09 02:55:09;;;;;;;11.20;5.70;;;;;;;;;;5005351;28;20057;-57
2021/07/09 02:57:36;;;;;;;12.35;5.53;;;;;;;;;;5004824;28;20041;-57
2021/07/09 03:00:04;;;;;;;11.85;6.13;;;;;;;;;;5018389;28;20139;-57
2021/07/09 03:02:30;;;;;;;12.48;5.88;;;;;;;;;;5005171;28;20104;-58
2021/07/09 03:04:57;;;;;;;11.95;5.65;;;;;;;;;;5018850;28;20041;-53
2021/07/09 03:07:25;;;;;;;11.20;5.85;;;;;;;;;;5004861;28;20053;-56
2021/07/09 03:09:52;;;;;;;;;;;;;;;;;;5001389;28;20071;-56
2021/07/09 03:12:18;;;;;;;10.27;5.38;;;;;;;;;;4995873;28;19925;-56
2021/07/09 03:14:45;;;;;;;13.52;6.38;;;;;;;;;;5024035;28;20037;-56
2021/07/09 03:17:11;;;;;;;15.68;6.20;;;;;;;;;;5024865;28;20053;-54
2021/07/09 03:19:38;;;;;;;11.43;5.90;;;;;;;;;;5016102;28;20061;-56
2021/07/09 03:22:05;;;;;;;11.93;6.28;;;;;;;;;;5002018;28;20114;-54
2021/07/09 03:24:33;;;;;;;13.77;6.53;;;;;;;;;;4999817;28;20082;-56
2021/07/09 03:27:00;;;;;;;12.30;6.23;;;;;;;;;;5001315;28;20053;-56
2021/07/09 03:29:26;;;;;;;10.23;5.53;;;;;;;;;;5002683;28;20346;-55
2021/07/09 03:31:53;;;;;;;14.52;6.93;;;;;;;;;;5018992;28;20052;-58
2021/07/09 03:34:19;;;;;;;12.60;6.32;;;;;;;;;;5005613;28;20127;-56
2021/07/09 03:36:48;;;;;;;14.48;6.88;;;;;;;;;;5033126;28;20060;-57
2021/07/09 03:39:14;;;;;;;15.07;7.15;;;;;;;;;;5034342;28;20038;-57
2021/07/09 03:41:42;;;;;;;13.55;6.63;;;;;;;;;;5001855;28;20095;-56
2021/07/09 03:44:09;;;;;;;13.90;6.85;;;;;;;;;;5005584;28;20045;-56
2021/07/09 03:46:38;;;;;;;11.60;5.82;;;;;;;;;;5001976;28;20115;-55
2021/07/09 03:49:04;;;;;;;;;;;;;;;;;;5004740;28;20135;-55
2021/07/09 03:51:31;;;;;;;13.85;6.70;;;;;;;;;;5000558;28;19925;-57
2021/07/09 03:53:57;;;;;;;19.25;7.07;;;;;;;;;;5022761;28;20045;-57
2021/07/09 03:56:24;;;;;;;12.85;6.63;;;;;;;;;;5014226;28;20057;-57
2021/07/09 03:58:52;;;;;;;13.57;6.60;;;;;;;;;;5001411;28;20034;-55
2021/07/09 04:01:19;;;;;;;14.10;7.03;;;;;;;;;;4999332;28;20054;-55
2021/07/09 04:03:46;;;;;;;14.73;6.75;;;;;;;;;;5022820;28;20070;-56
2021/07/09 04:06:12;;;;;;;15.02;6.50;;;;;;;;;;5001287;28;20042;-57
2021/07/09 04:08:39;;;;;;;16.60;6.80;;;;;;;;;;5024716;28;20033;-54
2021/07/09 04:11:05;;;;;;;16.00;6.57;;;;;;;;;;5006663;28;20048;-56
2021/07/09 04:13:32;;;;;;;15.93;6.80;;;;;;;;;;4999911;28;20046;-56
2021/07/09 04:15:59;;;;;;;14.93;6.80;;;;;;;;;;5001381;28;20045;-56
2021/07/09 04:18:26;;;;;;;16.13;6.72;;;;;;;;;;5001644;28;20045;-56
2021/07/09 04:20:53;;;;;;;14.45;6.88;;;;;;;;;;5038378;28;20045;-55
2021/07/09 04:23:20;;;;;;;14.30;5.90;;;;;;;;;;5023552;28;20046;-57
2021/07/09 04:25:46;;;;;;;14.02;6.60;;;;;;;;;;5020635;28;20034;-56
2021/07/09 04:28:13;;;;;;;13.23;6.85;;;;;;;;;;5000157;28;20108;-55
2021/07/09 04:30:39;;;;;;;17.15;6.97;;;;;;;;;;5022144;28;20037;-57
2021/07/09 04:33:07;;;;;;;13.73;7.20;;;;;;;;;;5011517;28;20053;-56
2021/07/09 04:35:33;;;;;;;16.63;7.03;;;;;;;;;;5001583;28;20042;-56
2021/07/09 04:38:00;;;;;;;15.45;7.03;;;;;;;;;;5000204;28;20291;-56
2021/07/09 04:40:27;;;;;;;15.02;7.22;;;;;;;;;;5001923;28;20042;-57
2021/07/09 04:42:54;;;;;;;16.35;7.22;;;;;;;;;;4984629;28;20037;-56
2021/07/09 04:45:20;;;;;;;17.70;7.75;;;;;;;;;;5036685;28;20131;-53
2021/07/09 04:47:47;;;;;;;14.73;7.13;;;;;;;;;;5034094;28;20046;-54
2021/07/09 04:50:15;;;;;;;18.83;7.72;;;;;;;;;;5006057;28;20041;-54
2021/07/09 04:52:41;;;;;;;;;;;;;;;;;;5006763;28;20042;-54
2021/07/09 04:55:08;;;;;;;16.42;7.07;;;;;;;;;;5001514;28;19932;-55
2021/07/09 04:57:35;;;;;;;16.95;8.25;;;;;;;;;;5007358;28;20053;-53
2021/07/09 05:00:01;;;;;;;23.77;8.40;;;;;;;;;;5021440;28;20037;-53
2021/07/09 05:02:28;;;;;;;18.85;8.50;;;;;;;;;;5039891;28;20058;-55
2021/07/09 05:04:54;;;;;;;20.23;8.82;;;;;;;;;;5004482;28;20091;-56
2021/07/09 05:07:22;;;;;;;19.02;8.85;;;;;;;;;;5006759;28;20066;-52
2021/07/09 05:09:48;;;;;;;20.15;9.82;;;;;;;;;;5004047;28;20042;-53
2021/07/09 05:12:15;;;;;;;24.75;10.38;;;;;;;;;;5006297;28;20127;-55
2021/07/09 05:14:41;;;;;;;22.17;9.07;;;;;;;;;;5002409;28;20041;-56
2021/07/09 05:17:08;;;;;;;19.92;9.15;;;;;;;;;;5004752;28;20046;-56
2021/07/09 05:19:34;;;;;;;18.10;8.68;;;;;;;;;;5002713;28;20085;-55
2021/07/09 05:22:01;;;;;;;21.30;9.55;;;;;;;;;;5004199;28;20037;-57
2021/07/09 05:24:29;;;;;;;25.17;9.35;;;;;;;;;;5002155;28;20037;-54
2021/07/09 05:26:55;;;;;;;23.98;9.13;;;;;;;;;;4999840;28;20075;-54
2021/07/09 05:29:22;;;;;;;20.23;9.25;;;;;;;;;;5000724;28;20061;-56
2021/07/09 05:31:49;;;;;;;24.38;9.65;;;;;;;;;;5000695;28;20050;-57
2021/07/09 05:34:15;;;;;;;20.92;9.27;;;;;;;;;;4999056;28;20116;-56
2021/07/09 05:36:41;;;;;;;23.55;10.35;;;;;;;;;;4999715;28;20042;-56
2021/07/09 05:39:08;;;;;;;25.55;11.50;;;;;;;;;;5000716;28;20065;-56
2021/07/09 05:42:00;;;;;;;26.30;12.02;;;;;;;;;;5001134;28;20049;-58
2021/07/09 05:44:27;;;;;;;20.30;9.82;;;;;;;;;;4972739;28;20054;-56
2021/07/09 05:46:53;;;;;;;24.15;9.52;;;;;;;;;;4996867;28;20062;-58
2021/07/09 05:49:20;;;;;;;18.90;9.07;;;;;;;;;;5000846;28;20046;-56
2021/07/09 05:51:46;;;;;;;19.75;9.63;;;;;;;;;;4999322;28;20077;-55
2021/07/09 05:54:13;;;;;;;18.40;8.65;;;;;;;;;;5000167;28;20086;-54
2021/07/09 05:56:41;;;;;;;20.42;9.95;;;;;;;;;;4998254;28;20120;-57
2021/07/09 05:59:07;;;;;;;18.80;9.03;;;;;;;;;;5003923;28;20100;-57
2021/07/09 06:01:34;;;;;;;21.05;9.10;;;;;;;;;;5000191;28;20287;-56
2021/07/09 06:04:00;;;;;;;19.45;9.05;;;;;;;;;;5004791;28;20058;-57
2021/07/09 06:06:27;;;;;;;18.58;9.15;;;;;;;;;;5028756;28;20061;-55
2021/07/09 06:08:53;;;;;;;22.20;10.82;;;;;;;;;;5002704;28;20042;-55
2021/07/09 06:11:20;;;;;;;21.08;9.25;;;;;;;;;;5001245;28;20127;-56
2021/07/09 06:13:47;;;;;;;18.77;8.98;;;;;;;;;;5036076;28;20046;-55
2021/07/09 06:16:14;;;;;;;17.03;7.80;;;;;;;;;;4999376;28;20042;-57
2021/07/09 06:18:41;;;;;;;20.98;8.25;;;;;;;;;;5002533;28;20038;-55
2021/07/09 06:21:07;;;;;;;19.75;8.70;;;;;;;;;;5001540;28;20057;-55
2021/07/09 06:23:34;;;;;;;19.40;8.88;;;;;;;;;;4991596;28;20046;-57
2021/07/09 06:26:00;;;;;;;20.13;9.07;;;;;;;;;;4991816;28;20158;-53
2021/07/09 06:28:27;;;;;;;23.60;9.68;;;;;;;;;;4978857;28;20046;-57
2021/07/09 06:30:54;;;;;;;20.45;9.68;;;;;;;;;;4983882;28;20042;-55
2021/07/09 06:33:21;;;;;;;17.42;8.73;;;;;;;;;;4979560;28;20132;-52
2021/07/09 06:35:47;;;;;;;18.65;8.73;;;;;;;;;;4983892;28;20053;-56
2021/07/09 06:38:14;;;;;;;20.65;9.48;;;;;;;;;;4980493;28;20039;-57
2021/07/09 06:40:43;;;;;;;19.92;8.77;;;;;;;;;;4982188;28;20042;-58
2021/07/09 06:43:10;;;;;;;18.50;8.77;;;;;;;;;;4979882;28;20050;-57
2021/07/09 06:45:36;;;;;;;19.88;9.15;;;;;;;;;;4983191;28;20166;-58
2021/07/09 06:48:05;;;;;;;19.40;8.45;;;;;;;;;;4980653;28;20041;-56
2021/07/09 06:50:31;;;;;;;18.15;8.73;;;;;;;;;;4982601;28;20031;-57
2021/07/09 06:52:57;;;;;;;16.45;7.80;;;;;;;;;;4994830;28;20053;-56
2021/07/09 06:55:24;;;;;;;17.35;7.82;;;;;;;;;;4983350;28;20047;-57
2021/07/09 06:57:51;;;;;;;20.63;7.40;;;;;;;;;;4981245;28;20046;-57
2021/07/09 07:00:18;;;;;;;16.45;8.18;;;;;;;;;;4985245;28;20053;-57
2021/07/09 07:02:44;;;;;;;14.90;7.65;;;;;;;;;;4982610;28;20053;-56
2021/07/09 07:05:13;;;;;;;14.35;7.55;;;;;;;;;;4978857;28;20038;-57
2021/07/09 07:07:39;;;;;;;;;;;;;;;;;;4982933;28;20125;-56
2021/07/09 07:10:08;;;;;;;17.45;6.90;;;;;;;;;;4978256;28;20019;-57
2021/07/09 07:12:34;;;;;;;14.80;6.18;;;;;;;;;;4982786;28;20050;-55
2021/07/09 07:15:02;;;;;;;16.65;6.93;;;;;;;;;;4980302;28;20128;-56
2021/07/09 07:17:28;;;;;;;14.18;7.13;;;;;;;;;;4997854;28;20136;-55
2021/07/09 07:19:56;;;;;;;13.30;6.18;;;;;;;;;;4996309;28;20063;-57
2021/07/09 07:22:24;;;;;;;13.55;6.20;;;;;;;;;;4984247;28;20043;-54
2021/07/09 07:24:51;;;;;;;19.45;6.78;;;;;;;;;;4982598;28;20055;-56
2021/07/09 07:27:19;;;;;;;14.63;7.03;;;;;;;;;;5004253;28;20049;-57
2021/07/09 07:29:46;;;;;;;9.87;5.27;;;;;;;;;;5012367;28;20063;-56
2021/07/09 07:32:13;;;;;;;11.85;5.50;;;;;;;;;;5003005;28;20038;-58
2021/07/09 07:34:40;;;;;;;11.07;4.75;;;;;;;;;;4998922;28;20046;-58
2021/07/09 07:37:07;;;;;;;10.98;5.18;;;;;;;;;;5002506;28;20038;-57
2021/07/09 07:39:35;;;;;;;13.07;4.75;;;;;;;;;;5008808;28;20052;-56
2021/07/09 07:42:01;;;;;;;13.27;5.22;;;;;;;;;;5001419;28;20050;-58
2021/07/09 07:44:28;;;;;;;10.60;5.13;;;;;;;;;;5002219;28;20046;-57
2021/07/09 07:46:55;;;;;;;10.05;4.85;;;;;;;;;;5004114;28;20042;-58
2021/07/09 07:49:22;;;;;;;10.20;4.65;;;;;;;;;;5003789;28;20049;-58
2021/07/09 07:51:50;;;;;;;9.27;4.47;;;;;;;;;;5002993;28;20077;-56
2021/07/09 07:54:17;;;;;;;8.07;3.20;;;;;;;;;;5004853;28;20132;-57
2021/07/09 07:56:45;;;;;;;8.38;3.42;;;;;;;;;;5018581;28;20078;-58
2021/07/09 07:59:11;;;;;;;8.35;3.88;;;;;;;;;;5022036;28;20037;-57
2021/07/09 08:01:38;;;;;;;5.35;2.80;;;;;;;;;;5000173;28;20057;-56
2021/07/09 08:04:05;;;;;;;8.90;3.47;;;;;;;;;;5004614;28;20056;-57
2021/07/09 08:06:31;;;;;;;9.80;3.53;;;;;;;;;;5001322;28;20124;-57
2021/07/09 08:08:58;;;;;;;6.38;2.38;;;;;;;;;;5004947;28;20074;-58
2021/07/09 08:11:25;;;;;;;8.32;2.60;;;;;;;;;;5000839;28;20049;-57
2021/07/09 08:13:53;;;;;;;6.85;2.38;;;;;;;;;;5003033;28;20046;-54
2021/07/09 08:16:19;;;;;;;15.48;3.08;;;;;;;;;;5002603;28;20099;-57
2021/07/09 08:18:46;;;;;;;9.70;2.90;;;;;;;;;;5022638;28;20042;-57
2021/07/09 08:21:14;;;;;;;9.45;2.88;;;;;;;;;;5002356;28;20048;-58
2021/07/09 08:23:41;;;;;;;9.07;4.00;;;;;;;;;;5040038;28;20052;-57
2021/07/09 08:26:08;;;;;;;10.63;2.92;;;;;;;;;;5021596;28;20048;-58
2021/07/09 08:28:34;;;;;;;12.30;3.63;;;;;;;;;;5007593;28;20056;-58
2021/07/09 08:31:02;;;;;;;11.82;4.20;;;;;;;;;;5025268;28;20054;-57
2021/07/09 08:33:28;;;;;;;13.10;4.40;;;;;;;;;;5022148;28;20052;-56
2021/07/09 08:35:55;;;;;;;11.95;4.63;;;;;;;;;;5023212;28;20287;-57
2021/07/09 08:38:23;;;;;;;10.05;4.15;;;;;;;;;;5036470;28;20044;-58
2021/07/09 08:40:49;;;;;;;;;;;;;;;;;;5004091;28;20058;-58
2021/07/09 08:43:16;;;;;;;12.27;5.05;;;;;;;;;;5013229;28;19936;-57
2021/07/09 08:45:42;;;;;;;10.25;4.97;;;;;;;;;;5024979;28;20052;-57
2021/07/09 08:48:10;;;;;;;13.82;6.80;;;;;;;;;;5002477;28;20039;-57
2021/07/09 08:50:37;;;;;;;15.40;5.38;;;;;;;;;;5006015;28;20045;-56
2021/07/09 08:53:04;;;;;;;13.82;5.90;;;;;;;;;;5002528;28;20045;-58
2021/07/09 08:55:30;;;;;;;12.95;5.93;;;;;;;;;;5008057;28;20042;-56
2021/07/09 08:57:56;;;;;;;11.70;5.85;;;;;;;;;;5000398;28;20038;-58
2021/07/09 09:00:40;;;;;;;14.10;5.07;;;;;;;;;;4988482;28;20120;-58
2021/07/09 09:03:12;;;;;;;17.63;6.32;;;;;;;;;;5001619;28;20050;-58
2021/07/09 09:05:39;;;;;;;15.45;5.80;;;;;;;;;;5007511;28;20042;-57
2021/07/09 09:08:06;;;;;;;13.07;6.20;;;;;;;;;;4998387;28;20038;-57
2021/07/09 09:10:33;;;;;;;14.75;6.18;;;;;;;;;;5007301;28;20046;-58
2021/07/09 09:13:04;;;;;;;13.73;6.77;;;;;;;;;;5004132;28;20042;-58
2021/07/09 09:15:30;;;;;;;11.27;5.93;;;;;;;;;;5005425;28;20144;-57
2021/07/09 09:17:57;;;;;;;15.30;6.85;;;;;;;;;;4988209;28;20042;-58
2021/07/09 09:20:28;;;;;;;10.55;5.30;;;;;;;;;;5016364;28;20101;-58
2021/07/09 09:22:59;;;;;;;11.18;6.28;;;;;;;;;;5024829;28;20156;-58
2021/07/09 09:25:27;;;;;;;14.95;6.60;;;;;;;;;;4993574;28;20043;-58
2021/07/09 09:27:57;;;;;;;14.48;7.10;;;;;;;;;;4984447;28;20030;-55
2021/07/09 09:30:24;;;;;;;14.85;7.45;;;;;;;;;;4980726;28;20042;-58
2021/07/09 09:32:52;;;;;;;12.30;6.28;;;;;;;;;;4984195;28;20046;-59
2021/07/09 09:35:21;;;;;;;13.52;6.90;;;;;;;;;;4994450;28;20042;-58
2021/07/09 09:37:53;;;;;;;16.45;7.60;;;;;;;;;;4984084;28;20046;-57
2021/07/09 09:40:21;;;;;;;14.75;8.13;;;;;;;;;;4980955;28;20038;-58
2021/07/09 09:42:47;;;;;;;16.00;7.72;;;;;;;;;;4985053;28;20050;-58
2021/07/09 09:45:14;;;;;;;18.50;8.13;;;;;;;;;;4981999;28;20132;-58
2021/07/09 09:47:40;;;;;;;14.93;8.57;;;;;;;;;;4984404;28;20050;-56
2021/07/09 09:50:08;;;;;;;17.23;8.98;;;;;;;;;;4980510;28;20062;-56
2021/07/09 09:52:36;;;;;;;15.15;7.78;;;;;;;;;;5016297;28;20159;-58
2021/07/09 09:55:04;;;;;;;17.07;8.57;;;;;;;;;;4980978;28;20132;-58
2021/07/09 09:57:31;;;;;;;18.63;8.40;;;;;;;;;;4985174;28;20050;-58
2021/07/09 09:59:57;;;;;;;16.70;8.95;;;;;;;;;;4980754;28;20124;-58
2021/07/09 10:02:24;;;;;;;14.68;7.50;;;;;;;;;;4982527;28;20038;-58
2021/07/09 10:04:52;;;;;;;14.10;8.27;;;;;;;;;;4984798;28;20054;-58
2021/07/09 10:07:19;;;;;;;16.65;8.18;;;;;;;;;;4979734;28;20109;-58
2021/07/09 10:09:45;;;;;;;14.55;7.25;;;;;;;;;;4984114;28;20049;-54
2021/07/09 10:12:16;;;;;;;14.32;7.47;;;;;;;;;;4980301;28;20050;-59
2021/07/09 10:14:44;;;;;;;14.27;6.65;;;;;;;;;;4981947;28;20039;-57
2021/07/09 10:17:11;;;;;;;14.43;6.93;;;;;;;;;;5002059;28;20034;-57
2021/07/09 10:19:38;;;;;;;18.52;7.38;;;;;;;;;;4983104;28;20042;-58
2021/07/09 10:22:05;;;;;;;16.00;7.10;;;;;;;;;;4980485;28;20058;-58
2021/07/09 10:24:32;;;;;;;12.18;6.57;;;;;;;;;;4984196;28;20042;-58
2021/07/09 10:26:59;;;;;;;10.57;5.15;;;;;;;;;;4979397;28;20057;-58
2021/07/09 10:29:28;;;;;;;11.43;5.45;;;;;;;;;;4984166;28;20050;-58
2021/07/09 10:31:55;;;;;;;10.73;5.30;;;;;;;;;;4980208;28;20054;-58
2021/07/09 10:34:29;;;;;;;9.20;4.80;;;;;;;;;;5013161;28;20042;-57
2021/07/09 10:36:56;;;;;;;11.00;4.90;;;;;;;;;;4978055;28;20181;-57
2021/07/09 10:39:42;;;;;;;11.95;4.55;;;;;;;;;;4985006;28;20120;-57
2021/07/09 10:42:16;;;;;;;11.63;4.70;;;;;;;;;;4978918;28;20047;-58
2021/07/09 10:44:57;;;;;;;12.38;5.70;;;;;;;;;;4984100;28;20038;-58
2021/07/09 10:47:23;;;;;;;11.65;5.60;;;;;;;;;;4977711;28;20057;-57
2021/07/09 10:49:56;;;;;;;14.57;6.25;;;;;;;;;;4983867;28;20101;-58
2021/07/09 10:52:41;;;;;;;12.10;5.75;;;;;;;;;;4981042;28;20050;-58
2021/07/09 10:55:23;;;;;;;11.63;4.60;;;;;;;;;;4984073;28;20070;-59
2021/07/09 10:58:17;;;;;;;12.65;6.18;;;;;;;;;;4974884;28;20053;-59
2021/07/09 11:00:45;;;;;;;17.88;8.25;;;;;;;;;;4982744;28;20075;-58
2021/07/09 11:03:11;;;;;;;;;;;;;;;;;;4984059;28;20038;-58
2021/07/09 11:05:54;;;;;;;14.43;6.57;;;;;;;;;;4985575;28;19928;-58
2021/07/09 11:08:40;;;;;;;16.05;6.78;;;;;;;;;;4982232;28;20034;-58
2021/07/09 11:11:07;;;;;;;13.02;6.50;;;;;;;;;;4981830;28;20053;-58
2021/07/09 11:13:46;;;;;;;13.95;5.65;;;;;;;;;;4980343;28;20101;-58
2021/07/09 11:16:25;;;;;;;12.57;5.85;;;;;;;;;;4983541;28;20049;-58
2021/07/09 11:18:52;;;;;;;9.38;5.05;;;;;;;;;;4979698;28;20050;-58
2021/07/09 11:21:34;;;;;;;15.27;7.75;;;;;;;;;;4982802;28;20053;-58
2021/07/09 11:24:01;;;;;;;11.70;5.78;;;;;;;;;;4977314;28;20042;-57
2021/07/09 11:26:28;;;;;;;13.00;6.00;;;;;;;;;;4995863;28;20034;-58
2021/07/09 11:28:57;;;;;;;12.55;4.97;;;;;;;;;;5029361;28;20030;-57
2021/07/09 11:31:32;;;;;;;9.35;3.90;;;;;;;;;;5032574;28;20049;-59
2021/07/09 11:34:00;;;;;;;7.30;3.45;;;;;;;;;;4997155;28;20038;-58
2021/07/09 11:36:26;;;;;;;7.97;3.10;;;;;;;;;;5033772;28;20050;-58
2021/07/09 11:39:05;;;;;;;6.65;3.38;;;;;;;;;;5000307;28;20046;-58
2021/07/09 11:41:32;;;;;;;10.07;4.15;;;;;;;;;;5001449;28;20057;-58
2021/07/09 11:43:59;;;;;;;9.70;5.00;;;;;;;;;;4998471;28;20053;-58
2021/07/09 11:46:26;;;;;;;13.38;5.30;;;;;;;;;;5001623;28;20145;-58
2021/07/09 11:48:53;;;;;;;10.52;5.50;;;;;;;;;;5003447;28;20120;-58
2021/07/09 11:51:20;;;;;;;11.90;5.18;;;;;;;;;;4991502;28;20046;-58
2021/07/09 11:54:01;;;;;;;12.82;5.82;;;;;;;;;;5000987;28;20057;-56
2021/07/09 11:56:37;;;;;;;10.45;4.80;;;;;;;;;;4998945;28;20046;-57
2021/07/09 11:59:12;;;;;;;8.90;4.10;;;;;;;;;;4998834;28;20038;-59
2021/07/09 12:01:38;;;;;;;8.27;4.10;;;;;;;;;;4996961;28;20056;-58
2021/07/09 12:04:06;;;;;;;9.93;4.40;;;;;;;;;;5000939;28;20116;-58
2021/07/09 12:06:33;;;;;;;12.77;6.05;;;;;;;;;;4997635;28;20034;-58
2021/07/09 12:08:59;;;;;;;10.32;5.45;;;;;;;;;;5002332;28;20042;-58
2021/07/09 12:11:26;;;;;;;13.75;5.70;;;;;;;;;;4998878;28;20046;-58
2021/07/09 12:14:02;;;;;;;10.07;5.50;;;;;;;;;;5001985;28;20038;-59
2021/07/09 12:16:29;;;;;;;11.13;5.30;;;;;;;;;;4998001;28;20063;-58
2021/07/09 12:18:55;;;;;;;11.43;4.68;;;;;;;;;;5002911;28;20054;-58
2021/07/09 12:21:24;;;;;;;9.88;4.38;;;;;;;;;;4997840;28;20050;-58
2021/07/09 12:24:00;;;;;;;11.15;5.32;;;;;;;;;;5003069;28;20088;-58
2021/07/09 12:26:27;;;;;;;11.82;5.50;;;;;;;;;;5014161;28;20037;-57
2021/07/09 12:28:53;;;;;;;10.50;4.57;;;;;;;;;;5005001;28;20127;-59
2021/07/09 12:31:21;;;;;;;16.20;5.15;;;;;;;;;;5015514;28;20046;-59
2021/07/09 12:33:51;;;;;;;10.38;4.75;;;;;;;;;;4999784;28;20138;-59
2021/07/09 12:36:20;;;;;;;19.42;6.13;;;;;;;;;;5001231;28;20030;-58
2021/07/09 12:38:56;;;;;;;12.82;5.00;;;;;;;;;;5021802;28;20045;-58
2021/07/09 12:41:30;;;;;;;13.05;6.07;;;;;;;;;;5001203;28;20061;-59
2021/07/09 12:43:57;;;;;;;10.82;5.38;;;;;;;;;;5005800;28;20069;-58
2021/07/09 12:46:24;;;;;;;11.68;5.55;;;;;;;;;;5017589;28;20037;-58
2021/07/09 12:48:55;;;;;;;12.57;5.67;;;;;;;;;;5001926;28;20147;-58
2021/07/09 12:51:25;;;;;;;16.75;6.00;;;;;;;;;;5024680;28;20045;-58
2021/07/09 12:53:54;;;;;;;11.32;5.80;;;;;;;;;;5019195;28;20057;-59
2021/07/09 12:56:21;;;;;;;13.70;6.18;;;;;;;;;;5020249;28;20038;-57
2021/07/09 12:58:49;;;;;;;18.88;6.15;;;;;;;;;;5005878;28;20044;-56
2021/07/09 13:01:19;;;;;;;69.75;8.15;;;;;;;;;;5023433;28;20038;-58
2021/07/09 13:03:45;;;;;;;12.73;6.28;;;;;;;;;;5001919;28;20049;-56
2021/07/09 13:06:14;;;;;;;14.98;7.30;;;;;;;;;;5003601;28;20056;-57
2021/07/09 13:08:41;;;;;;;15.27;6.30;;;;;;;;;;4999930;28;20037;-57
2021/07/09 13:11:19;;;;;;;16.13;6.90;;;;;;;;;;5005139;28;20136;-55
2021/07/09 13:13:49;;;;;;;17.05;7.47;;;;;;;;;;5001199;28;20299;-58
2021/07/09 13:16:17;;;;;;;12.98;5.68;;;;;;;;;;5005489;28;20057;-58
2021/07/09 13:18:50;;;;;;;15.27;6.82;;;;;;;;;;4999101;28;20116;-58
2021/07/09 13:21:16;;;;;;;21.08;7.35;;;;;;;;;;5004741;28;20045;-57
2021/07/09 13:24:00;;;;;;;12.30;6.75;;;;;;;;;;5002945;28;20045;-58
2021/07/09 13:26:30;;;;;;;17.33;8.73;;;;;;;;;;4988925;28;20125;-58
2021/07/09 13:28:57;;;;;;;14.05;6.82;;;;;;;;;;4979004;28;20059;-58
2021/07/09 13:31:23;;;;;;;27.30;6.60;;;;;;;;;;4984140;28;20049;-58
2021/07/09 13:33:51;;;;;;;16.85;6.97;;;;;;;;;;4980309;28;20053;-58
2021/07/09 13:36:18;;;;;;;75.43;8.30;;;;;;;;;;4982742;28;20125;-58
2021/07/09 13:38:46;;;;;;;10.27;5.85;;;;;;;;;;4979646;28;20048;-59
2021/07/09 13:41:12;;;;;;;;;;;;;;;;;;4984160;28;20049;-58
2021/07/09 13:43:40;;;;;;;14.30;6.35;;;;;;;;;;4978869;28;19922;-57
2021/07/09 13:46:07;;;;;;;;;;;;;;;;;;4984149;28;20125;-58
2021/07/09 13:48:33;;;;;;;14.70;5.85;;;;;;;;;;4983319;28;19929;-57
2021/07/09 13:51:00;;;;;;;28.90;6.57;;;;;;;;;;4979714;28;20046;-59
2021/07/09 13:53:26;;;;;;;13.10;5.88;;;;;;;;;;4983287;28;20122;-58
2021/07/09 13:55:52;;;;;;;297.65;16.83;;;;;;;;;;4979015;28;20062;-58
2021/07/09 13:58:22;;;;;;;12.52;5.75;;;;;;;;;;4982877;28;20034;-58
2021/07/09 14:00:51;;;;;;;11.45;5.90;;;;;;;;;;4978634;28;20053;-58
2021/07/09 14:03:18;;;;;;;12.52;5.88;;;;;;;;;;4982866;28;20053;-59
2021/07/09 14:05:46;;;;;;;12.88;6.25;;;;;;;;;;4979981;28;20042;-59
2021/07/09 14:08:13;;;;;;;16.27;6.65;;;;;;;;;;4983588;28;20041;-58
2021/07/09 14:10:39;;;;;;;10.95;5.85;;;;;;;;;;4980036;28;20049;-59
2021/07/09 14:13:05;;;;;;;12.02;5.90;;;;;;;;;;4983160;28;20030;-59
2021/07/09 14:15:32;;;;;;;15.60;7.18;;;;;;;;;;4978882;28;20042;-57
2021/07/09 14:18:00;;;;;;;12.50;5.85;;;;;;;;;;4998122;28;20117;-58
2021/07/09 14:20:27;;;;;;;10.52;5.18;;;;;;;;;;4978639;28;20078;-58
2021/07/09 14:22:54;;;;;;;13.23;6.53;;;;;;;;;;4981766;28;20043;-59
2021/07/09 14:25:20;;;;;;;14.32;6.72;;;;;;;;;;4978722;28;20035;-59
2021/07/09 14:27:47;;;;;;;17.70;7.97;;;;;;;;;;4983347;28;20065;-58
2021/07/09 14:30:14;;;;;;;15.80;7.00;;;;;;;;;;4982333;28;20054;-58
2021/07/09 14:32:40;;;;;;;15.48;7.20;;;;;;;;;;4979065;28;20128;-59
2021/07/09 14:35:09;;;;;;;17.40;7.18;;;;;;;;;;4982323;28;20093;-59
2021/07/09 14:37:35;;;;;;;25.23;9.55;;;;;;;;;;4977698;28;20124;-59